createdAt,value
2023-03-31T00:00:25.479Z,9.16
2023-03-31T00:02:01.074Z,9.04
2023-03-31T00:03:34.315Z,8.97
2023-03-31T00:05:07.416Z,8.96
2023-03-31T00:06:43.166Z,8.98
2023-03-31T00:08:14.717Z,9.17
2023-03-31T00:09:46.410Z,9.09
2023-03-31T00:11:18.174Z,8.96
2023-03-31T00:12:49.766Z,9.06
2023-03-31T00:14:21.780Z,9.00
2023-03-31T00:16:01.586Z,8.98
2023-03-31T00:17:33.543Z,8.97
2023-03-31T00:19:10.237Z,9.00
2023-03-31T00:20:47.765Z,8.91
2023-03-31T00:22:22.163Z,8.85
2023-03-31T00:23:59.299Z,8.87
2023-03-31T00:25:30.907Z,8.83
2023-03-31T00:27:04.713Z,8.88
2023-03-31T00:28:36.282Z,8.89
2023-03-31T00:30:08.720Z,8.86
2023-03-31T00:31:40.597Z,8.82
2023-03-31T00:33:12.240Z,8.82
2023-03-31T00:34:46.137Z,8.84
2023-03-31T00:36:21.385Z,8.79
2023-03-31T00:37:53.961Z,8.79
2023-03-31T00:39:25.644Z,8.80
2023-03-31T00:40:57.327Z,8.82
2023-03-31T00:42:29.522Z,8.82
2023-03-31T00:44:08.475Z,8.82
2023-03-31T00:45:40.425Z,8.86
2023-03-31T00:47:20.134Z,8.85
2023-03-31T00:48:58.662Z,8.87
2023-03-31T00:50:36.005Z,8.88
2023-03-31T00:52:27.709Z,8.89
2023-03-31T00:54:06.647Z,8.88
2023-03-31T00:55:45.102Z,8.89
2023-03-31T00:57:16.922Z,8.87
2023-03-31T00:58:49.834Z,8.82
2023-03-31T01:00:24.017Z,8.81
2023-03-31T01:01:59.321Z,8.86
2023-03-31T01:03:33.508Z,8.87
2023-03-31T01:05:06.223Z,8.80
2023-03-31T01:06:46.604Z,8.88
2023-03-31T01:08:24.519Z,8.88
2023-03-31T01:10:00.171Z,8.79
2023-03-31T01:11:31.846Z,8.78
2023-03-31T01:13:03.701Z,8.83
2023-03-31T01:14:35.838Z,8.85
2023-03-31T01:16:07.492Z,8.86
2023-03-31T01:17:40.554Z,8.76
2023-03-31T01:19:29.192Z,8.72
2023-03-31T01:21:41.167Z,8.73
2023-03-31T01:23:31.639Z,8.78
2023-03-31T01:25:30.651Z,8.78
2023-03-31T01:27:22.155Z,8.83
2023-03-31T01:29:12.433Z,8.88
2023-03-31T01:31:25.354Z,8.87
2023-03-31T01:32:57.029Z,8.94
2023-03-31T01:34:43.476Z,8.88
2023-03-31T01:36:28.726Z,8.96
2023-03-31T01:38:24.426Z,8.98
2023-03-31T01:40:21.753Z,9.16
2023-03-31T01:41:53.234Z,9.54
2023-03-31T01:43:24.738Z,9.94
2023-03-31T01:45:08.117Z,9.86
2023-03-31T01:46:49.295Z,9.80
2023-03-31T01:48:53.224Z,9.73
2023-03-31T01:50:30.624Z,10.04
2023-03-31T01:52:24.164Z,10.26
2023-03-31T01:54:04.970Z,10.36
2023-03-31T01:55:42.759Z,10.42
2023-03-31T01:57:24.538Z,10.70
2023-03-31T01:59:32.727Z,10.85
2023-03-31T02:01:16.928Z,10.75
2023-03-31T02:02:58.215Z,10.92
2023-03-31T02:04:38.594Z,10.93
2023-03-31T02:06:19.193Z,10.92
2023-03-31T02:07:58.705Z,10.85
2023-03-31T02:09:36.843Z,10.91
2023-03-31T02:11:08.812Z,10.79
2023-03-31T02:12:43.517Z,10.82
2023-03-31T02:14:21.933Z,10.73
2023-03-31T02:16:01.490Z,10.67
2023-03-31T02:17:34.001Z,10.59
2023-03-31T02:19:07.238Z,10.72
2023-03-31T02:20:46.175Z,10.57
2023-03-31T02:22:21.789Z,10.49
2023-03-31T02:23:53.630Z,10.42
2023-03-31T02:25:41.239Z,10.38
2023-03-31T02:27:16.753Z,10.46
2023-03-31T02:28:48.401Z,10.47
2023-03-31T02:30:20.135Z,10.35
2023-03-31T02:32:10.517Z,10.25
2023-03-31T02:33:42.302Z,10.18
2023-03-31T02:35:17.675Z,10.11
2023-03-31T02:36:49.938Z,10.16
2023-03-31T02:38:21.585Z,10.10
2023-03-31T02:39:55.829Z,10.00
2023-03-31T02:41:27.671Z,9.97
2023-03-31T02:43:02.045Z,9.90
2023-03-31T02:44:38.672Z,9.84
2023-03-31T02:46:11.729Z,9.78
2023-03-31T02:47:43.578Z,9.78
2023-03-31T02:49:17.462Z,9.80
2023-03-31T02:51:09.744Z,9.87
2023-03-31T02:52:46.615Z,9.93
2023-03-31T02:54:30.307Z,9.70
2023-03-31T02:56:07.229Z,9.55
2023-03-31T02:57:57.274Z,9.43
2023-03-31T02:59:29.450Z,9.40
2023-03-31T03:01:16.289Z,9.41
2023-03-31T03:03:03.232Z,9.36
2023-03-31T03:04:34.793Z,9.30
2023-03-31T03:06:18.684Z,9.37
2023-03-31T03:08:06.334Z,9.26
2023-03-31T03:09:45.476Z,9.25
2023-03-31T03:11:22.587Z,9.18
2023-03-31T03:13:21.111Z,9.09
2023-03-31T03:15:13.788Z,9.16
2023-03-31T03:16:53.014Z,9.06
2023-03-31T03:18:24.902Z,9.02
2023-03-31T03:20:00.677Z,9.01
2023-03-31T03:21:32.574Z,9.01
2023-03-31T03:23:04.252Z,9.23
2023-03-31T03:24:35.901Z,9.14
2023-03-31T03:26:09.077Z,9.04
2023-03-31T03:27:40.884Z,9.04
2023-03-31T03:29:15.734Z,8.97
2023-03-31T03:30:47.397Z,8.97
2023-03-31T03:32:19.040Z,8.87
2023-03-31T03:33:51.035Z,8.83
2023-03-31T03:35:22.744Z,8.89
2023-03-31T03:36:54.359Z,8.85
2023-03-31T03:38:25.978Z,8.81
2023-03-31T03:39:57.916Z,8.70
2023-03-31T03:41:29.749Z,8.66
2023-03-31T03:43:01.320Z,8.76
2023-03-31T03:44:32.953Z,8.66
2023-03-31T03:46:05.675Z,8.67
2023-03-31T03:47:37.683Z,8.54
2023-03-31T03:49:09.284Z,8.48
2023-03-31T03:50:41.259Z,8.42
2023-03-31T03:52:12.881Z,8.33
2023-03-31T03:53:44.506Z,8.24
2023-03-31T03:55:17.788Z,8.40
2023-03-31T03:56:49.538Z,8.29
2023-03-31T03:58:21.420Z,8.18
2023-03-31T03:59:52.961Z,8.19
2023-03-31T04:01:24.661Z,8.20
2023-03-31T04:02:56.384Z,8.10
2023-03-31T04:04:27.923Z,8.12
2023-03-31T04:05:59.451Z,8.08
2023-03-31T04:07:31.036Z,8.01
2023-03-31T04:09:03.739Z,8.03
2023-03-31T04:10:35.862Z,8.08
2023-03-31T04:12:07.441Z,8.13
2023-03-31T04:13:39.056Z,8.21
2023-03-31T04:15:11.079Z,8.23
2023-03-31T04:16:42.924Z,8.29
2023-03-31T04:18:23.599Z,8.30
2023-03-31T04:19:55.190Z,8.25
2023-03-31T04:21:26.784Z,8.47
2023-03-31T04:22:58.331Z,8.40
2023-03-31T04:24:32.757Z,8.38
2023-03-31T04:26:08.790Z,8.35
2023-03-31T04:28:00.688Z,8.29
2023-03-31T04:29:33.476Z,8.43
2023-03-31T04:31:09.376Z,8.48
2023-03-31T04:32:40.933Z,8.45
2023-03-31T04:34:15.226Z,8.42
2023-03-31T04:35:50.344Z,8.40
2023-03-31T04:37:22.631Z,8.39
2023-03-31T04:38:54.890Z,8.36
2023-03-31T04:40:26.796Z,8.55
2023-03-31T04:42:00.624Z,8.47
2023-03-31T04:43:32.234Z,8.47
2023-03-31T04:45:04.188Z,8.60
2023-03-31T04:46:36.151Z,8.60
2023-03-31T04:48:08.182Z,8.52
2023-03-31T04:49:39.847Z,8.57
2023-03-31T04:51:15.312Z,8.73
2023-03-31T04:52:46.874Z,8.67
2023-03-31T04:54:18.666Z,8.67
2023-03-31T04:55:50.726Z,8.68
2023-03-31T04:57:22.557Z,8.62
2023-03-31T04:58:54.387Z,8.58
2023-03-31T05:00:26.624Z,8.57
2023-03-31T05:01:58.359Z,8.52
2023-03-31T05:03:29.963Z,8.55
2023-03-31T05:05:01.605Z,8.56
2023-03-31T05:06:33.598Z,8.53
2023-03-31T05:08:05.416Z,8.47
2023-03-31T05:09:36.932Z,8.44
2023-03-31T05:11:08.486Z,8.47
2023-03-31T05:12:40.299Z,8.44
2023-03-31T05:14:14.008Z,8.44
2023-03-31T05:15:48.002Z,8.47
2023-03-31T05:17:19.694Z,8.56
2023-03-31T05:18:51.334Z,8.57
2023-03-31T05:20:22.868Z,8.53
2023-03-31T05:21:54.443Z,8.53
2023-03-31T05:23:26.267Z,8.49
2023-03-31T05:24:57.885Z,8.47
2023-03-31T05:26:29.463Z,8.49
2023-03-31T05:28:01.556Z,8.53
2023-03-31T05:29:33.188Z,8.49
2023-03-31T05:31:06.071Z,8.45
2023-03-31T05:32:37.763Z,8.48
2023-03-31T05:34:09.412Z,8.44
2023-03-31T05:35:41.126Z,8.47
2023-03-31T05:37:12.769Z,8.44
2023-03-31T05:38:44.691Z,8.45
2023-03-31T05:40:16.617Z,8.43
2023-03-31T05:41:48.347Z,8.50
2023-03-31T05:43:19.963Z,8.63
2023-03-31T05:44:51.540Z,8.64
2023-03-31T05:46:23.261Z,8.59
2023-03-31T05:47:54.958Z,8.54
2023-03-31T05:49:26.531Z,8.53
2023-03-31T05:50:59.436Z,8.51
2023-03-31T05:52:32.884Z,8.51
2023-03-31T05:54:04.447Z,8.45
2023-03-31T05:55:36.862Z,8.42
2023-03-31T05:57:09.476Z,8.39
2023-03-31T05:58:41.138Z,8.39
2023-03-31T06:00:13.391Z,8.46
2023-03-31T06:01:45.297Z,8.56
2023-03-31T06:03:17.022Z,8.57
2023-03-31T06:04:48.629Z,8.51
2023-03-31T06:06:21.329Z,8.43
2023-03-31T06:07:53.735Z,8.44
2023-03-31T06:09:26.192Z,8.42
2023-03-31T06:10:58.213Z,8.38
2023-03-31T06:12:29.838Z,8.41
2023-03-31T06:14:01.457Z,8.41
2023-03-31T06:15:33.173Z,8.44
2023-03-31T06:17:04.841Z,8.45
2023-03-31T06:18:36.785Z,8.60
2023-03-31T06:20:20.447Z,8.71
2023-03-31T06:21:58.430Z,8.62
2023-03-31T06:23:30.408Z,8.58
2023-03-31T06:25:02.114Z,8.51
2023-03-31T06:26:33.757Z,8.49
2023-03-31T06:28:07.475Z,8.46
2023-03-31T06:29:39.068Z,8.48
2023-03-31T06:31:16.464Z,8.44
2023-03-31T06:32:48.123Z,8.51
2023-03-31T06:34:21.350Z,8.62
2023-03-31T06:35:56.484Z,8.54
2023-03-31T06:37:28.169Z,8.63
2023-03-31T06:38:59.769Z,8.59
2023-03-31T06:40:31.703Z,8.54
2023-03-31T06:42:03.770Z,8.60
2023-03-31T06:43:37.796Z,8.52
2023-03-31T06:45:09.922Z,8.49
2023-03-31T06:46:41.817Z,8.48
2023-03-31T06:48:14.032Z,8.47
2023-03-31T06:49:46.256Z,8.45
2023-03-31T06:51:18.012Z,8.68
2023-03-31T06:52:52.754Z,8.78
2023-03-31T06:54:24.582Z,8.64
2023-03-31T06:55:56.267Z,8.58
2023-03-31T06:57:29.056Z,8.73
2023-03-31T06:59:01.095Z,8.64
2023-03-31T07:00:33.851Z,8.69
2023-03-31T07:02:05.450Z,8.77
2023-03-31T07:03:37.910Z,8.91
2023-03-31T07:05:09.639Z,9.05
2023-03-31T07:06:41.488Z,9.11
2023-03-31T07:08:13.125Z,9.09
2023-03-31T07:09:44.765Z,9.12
2023-03-31T07:11:16.723Z,9.27
2023-03-31T07:12:48.468Z,9.27
2023-03-31T07:14:20.209Z,9.25
2023-03-31T07:15:52.050Z,9.23
2023-03-31T07:17:25.494Z,9.32
2023-03-31T07:18:58.059Z,9.33
2023-03-31T07:20:31.017Z,9.25
2023-03-31T07:22:02.613Z,9.28
2023-03-31T07:23:35.671Z,9.34
2023-03-31T07:25:09.182Z,9.39
2023-03-31T07:26:40.837Z,9.53
2023-03-31T07:28:12.408Z,9.62
2023-03-31T07:29:44.107Z,9.72
2023-03-31T07:31:16.501Z,9.82
2023-03-31T07:32:52.078Z,10.00
2023-03-31T07:34:23.744Z,9.97
2023-03-31T07:36:08.261Z,9.96
2023-03-31T07:37:46.293Z,10.04
2023-03-31T07:39:17.860Z,10.08
2023-03-31T07:41:01.934Z,10.20
2023-03-31T07:42:39.768Z,10.27
2023-03-31T07:44:11.373Z,10.47
2023-03-31T07:45:43.097Z,10.90
2023-03-31T07:47:14.766Z,13.23
2023-03-31T07:48:48.164Z,16.33
2023-03-31T07:50:20.524Z,15.86
2023-03-31T07:51:54.079Z,14.33
2023-03-31T07:53:25.826Z,13.76
2023-03-31T07:54:57.488Z,13.36
2023-03-31T07:56:31.672Z,12.91
2023-03-31T07:58:03.298Z,12.71
2023-03-31T07:59:34.882Z,15.56
2023-03-31T08:01:08.068Z,20.14
2023-03-31T08:02:43.065Z,21.21
2023-03-31T08:04:14.929Z,24.53
2023-03-31T08:05:46.565Z,25.95
2023-03-31T08:07:18.192Z,27.72
2023-03-31T08:08:50.421Z,29.56
2023-03-31T08:10:26.044Z,28.29
2023-03-31T08:11:57.618Z,28.70
2023-03-31T08:13:29.307Z,30.35
2023-03-31T08:15:01.515Z,29.48
2023-03-31T08:16:33.191Z,30.55
2023-03-31T08:18:05.577Z,31.69
2023-03-31T08:19:37.397Z,30.75
2023-03-31T08:21:12.194Z,31.63
2023-03-31T08:22:43.833Z,32.29
2023-03-31T08:24:15.420Z,32.54
2023-03-31T08:25:47.380Z,32.97
2023-03-31T08:27:19.027Z,32.98
2023-03-31T08:28:50.749Z,32.17
2023-03-31T08:30:23.384Z,31.73
2023-03-31T08:31:55.562Z,30.02
2023-03-31T08:33:27.222Z,31.46
2023-03-31T08:34:59.216Z,32.60
2023-03-31T08:36:31.159Z,32.28
2023-03-31T08:38:03.135Z,32.54
2023-03-31T08:39:37.134Z,34.00
2023-03-31T08:41:19.507Z,33.99
2023-03-31T08:42:56.057Z,33.55
2023-03-31T08:44:41.108Z,34.72
2023-03-31T08:46:15.998Z,33.97
2023-03-31T08:47:51.734Z,35.33
2023-03-31T08:49:26.138Z,33.56
2023-03-31T08:51:08.471Z,34.09
2023-03-31T08:52:45.860Z,34.18
2023-03-31T08:54:24.999Z,34.28
2023-03-31T08:55:58.910Z,33.41
2023-03-31T08:57:53.020Z,29.74
2023-03-31T08:59:29.833Z,33.85
2023-03-31T09:01:23.122Z,36.89
2023-03-31T09:03:07.268Z,35.41
2023-03-31T09:05:00.735Z,36.81
2023-03-31T09:06:43.439Z,34.55
2023-03-31T09:08:35.740Z,33.62
2023-03-31T09:10:13.613Z,28.16
2023-03-31T09:11:53.856Z,33.01
2023-03-31T09:13:40.657Z,31.94
2023-03-31T09:15:20.173Z,31.39
2023-03-31T09:17:06.687Z,34.00
2023-03-31T09:18:40.590Z,32.69
2023-03-31T09:20:32.323Z,25.80
2023-03-31T09:22:09.868Z,30.09
2023-03-31T09:24:16.884Z,33.09
2023-03-31T09:25:48.896Z,33.03
2023-03-31T09:27:21.238Z,30.45
2023-03-31T09:28:56.414Z,30.95
2023-03-31T09:30:29.633Z,31.73
2023-03-31T09:32:09.920Z,34.41
2023-03-31T09:33:45.924Z,27.63
2023-03-31T09:35:21.477Z,28.01
2023-03-31T09:36:53.063Z,30.74
2023-03-31T09:38:29.431Z,33.04
2023-03-31T09:40:07.861Z,34.36
2023-03-31T09:41:43.498Z,34.75
2023-03-31T09:43:14.929Z,32.93
2023-03-31T09:44:50.107Z,31.33
2023-03-31T09:46:35.013Z,32.67
2023-03-31T09:48:13.303Z,32.79
2023-03-31T09:49:53.725Z,32.09
2023-03-31T09:51:30.616Z,30.13
2023-03-31T09:53:05.256Z,30.38
2023-03-31T09:54:37.089Z,28.87
2023-03-31T09:56:11.292Z,24.69
2023-03-31T09:57:43.145Z,21.95
2023-03-31T09:59:32.901Z,24.60
2023-03-31T10:01:09.073Z,27.63
2023-03-31T10:02:49.837Z,32.17
2023-03-31T10:04:28.215Z,28.77
2023-03-31T10:06:00.017Z,29.69
2023-03-31T10:07:32.819Z,29.31
2023-03-31T10:09:05.602Z,27.44
2023-03-31T10:10:38.135Z,29.24
2023-03-31T10:12:17.602Z,29.20
2023-03-31T10:14:03.027Z,32.06
2023-03-31T10:15:40.350Z,32.73
2023-03-31T10:17:18.593Z,32.17
2023-03-31T10:18:50.508Z,33.12
2023-03-31T10:20:38.690Z,30.11
2023-03-31T10:22:26.470Z,31.29
2023-03-31T10:24:01.869Z,33.35
2023-03-31T10:25:34.232Z,34.29
2023-03-31T10:27:13.988Z,34.25
2023-03-31T10:28:49.503Z,34.45
2023-03-31T10:30:22.360Z,33.66
2023-03-31T10:31:54.368Z,33.08
2023-03-31T10:33:28.470Z,30.98
2023-03-31T10:35:28.456Z,31.54
2023-03-31T10:37:00.152Z,30.80
2023-03-31T10:38:40.682Z,30.55
2023-03-31T10:40:18.069Z,29.74
2023-03-31T10:41:51.584Z,28.09
2023-03-31T10:43:29.171Z,25.88
2023-03-31T10:45:36.458Z,23.32
2023-03-31T10:47:18.211Z,22.37
2023-03-31T10:48:51.435Z,21.85
2023-03-31T10:50:29.366Z,21.62
2023-03-31T10:52:01.414Z,20.99
2023-03-31T10:53:48.286Z,20.89
2023-03-31T10:55:30.458Z,20.74
2023-03-31T10:57:05.519Z,21.13
2023-03-31T10:58:58.375Z,21.13
2023-03-31T11:00:55.153Z,21.75
2023-03-31T11:02:35.868Z,21.19
2023-03-31T11:04:26.121Z,21.13
2023-03-31T11:06:09.671Z,20.67
2023-03-31T11:08:04.522Z,19.91
2023-03-31T11:10:03.386Z,19.48
2023-03-31T11:12:02.891Z,17.93
2023-03-31T11:13:34.609Z,16.98
2023-03-31T11:15:20.770Z,16.48
2023-03-31T11:17:08.526Z,16.17
2023-03-31T11:18:57.780Z,15.47
2023-03-31T11:20:32.220Z,13.20
2023-03-31T11:22:26.697Z,11.47
2023-03-31T11:24:16.196Z,11.31
2023-03-31T11:26:11.472Z,11.54
2023-03-31T11:28:20.950Z,11.06
2023-03-31T11:29:55.703Z,11.16
2023-03-31T11:31:47.739Z,11.21
2023-03-31T11:33:46.862Z,11.22
2023-03-31T11:35:37.278Z,10.86
2023-03-31T11:37:21.519Z,10.64
2023-03-31T11:39:10.282Z,10.61
2023-03-31T11:40:56.811Z,10.46
2023-03-31T11:42:42.558Z,10.47
2023-03-31T11:44:18.636Z,10.38
2023-03-31T11:45:55.872Z,10.47
2023-03-31T11:47:33.726Z,10.22
2023-03-31T11:49:19.291Z,10.28
2023-03-31T11:50:51.520Z,10.40
2023-03-31T11:52:41.874Z,10.60
2023-03-31T11:54:23.993Z,10.68
2023-03-31T11:55:57.954Z,11.38
2023-03-31T11:57:53.106Z,11.35
2023-03-31T11:59:31.894Z,10.91
2023-03-31T12:01:23.985Z,11.35
2023-03-31T12:03:11.152Z,11.42
2023-03-31T12:04:46.702Z,11.28
2023-03-31T12:06:23.324Z,11.32
2023-03-31T12:08:11.423Z,11.35
2023-03-31T12:09:48.769Z,11.46
2023-03-31T12:11:36.072Z,11.51
2023-03-31T12:13:29.218Z,11.47
2023-03-31T12:15:27.494Z,11.65
2023-03-31T12:17:12.284Z,11.69
2023-03-31T12:18:57.296Z,11.92
2023-03-31T12:20:31.704Z,12.07
2023-03-31T12:22:22.357Z,12.65
2023-03-31T12:23:54.333Z,12.61
2023-03-31T12:25:36.947Z,12.83
2023-03-31T12:27:18.539Z,12.61
2023-03-31T12:28:59.687Z,12.85
2023-03-31T12:30:39.541Z,13.01
2023-03-31T12:32:21.330Z,13.00
2023-03-31T12:34:07.387Z,13.00
2023-03-31T12:36:07.553Z,12.99
2023-03-31T12:37:51.768Z,13.06
2023-03-31T12:39:51.647Z,12.99
2023-03-31T12:41:43.213Z,13.09
2023-03-31T12:43:56.287Z,13.26
2023-03-31T12:45:35.347Z,13.43
2023-03-31T12:47:19.098Z,13.37
2023-03-31T12:48:56.663Z,13.62
2023-03-31T12:50:33.248Z,13.67
2023-03-31T12:52:12.435Z,13.54
2023-03-31T12:54:16.034Z,13.23
2023-03-31T12:55:57.839Z,13.32
2023-03-31T12:57:29.657Z,13.30
2023-03-31T12:59:19.077Z,13.31
2023-03-31T13:01:08.077Z,13.46
2023-03-31T13:02:41.243Z,13.21
2023-03-31T13:04:22.136Z,13.19
2023-03-31T13:05:53.798Z,13.15
2023-03-31T13:07:28.302Z,13.31
2023-03-31T13:09:08.481Z,13.49
2023-03-31T13:10:58.155Z,13.54
2023-03-31T13:12:33.132Z,13.71
2023-03-31T13:14:14.132Z,13.90
2023-03-31T13:15:54.574Z,13.76
2023-03-31T13:17:35.710Z,13.74
2023-03-31T13:19:07.781Z,13.50
2023-03-31T13:20:40.900Z,13.54
2023-03-31T13:22:31.680Z,13.21
2023-03-31T13:24:07.258Z,13.34
2023-03-31T13:25:43.572Z,13.49
2023-03-31T13:27:35.626Z,13.83
2023-03-31T13:29:16.489Z,13.79
2023-03-31T13:31:14.313Z,13.88
2023-03-31T13:33:05.040Z,13.62
2023-03-31T13:34:45.040Z,13.44
2023-03-31T13:36:41.156Z,13.24
2023-03-31T13:38:22.942Z,13.19
2023-03-31T13:40:24.875Z,12.80
2023-03-31T13:42:14.748Z,12.48
2023-03-31T13:44:01.359Z,12.36
2023-03-31T13:45:52.888Z,11.99
2023-03-31T13:47:39.925Z,11.78
2023-03-31T13:49:40.528Z,11.55
2023-03-31T13:51:28.724Z,11.33
2023-03-31T13:53:37.968Z,11.01
2023-03-31T13:55:24.362Z,10.76
2023-03-31T13:57:27.348Z,10.51
2023-03-31T13:59:11.901Z,10.30
2023-03-31T14:01:09.952Z,10.34
2023-03-31T14:03:19.161Z,10.65
2023-03-31T14:05:02.751Z,11.05
2023-03-31T14:06:38.382Z,11.38
2023-03-31T14:08:14.859Z,11.53
2023-03-31T14:09:50.006Z,11.65
2023-03-31T14:11:26.395Z,11.68
2023-03-31T14:13:18.239Z,11.49
2023-03-31T14:14:54.569Z,11.17
2023-03-31T14:16:27.100Z,10.97
2023-03-31T14:17:58.749Z,10.74
2023-03-31T14:20:24.220Z,10.75
2023-03-31T14:21:58.799Z,10.83
2023-03-31T14:23:48.206Z,10.75
2023-03-31T14:25:31.732Z,10.97
2023-03-31T14:27:21.909Z,11.30
2023-03-31T14:29:03.884Z,11.47
2023-03-31T14:30:47.608Z,11.56
2023-03-31T14:32:32.446Z,11.58
2023-03-31T14:34:26.273Z,11.57
2023-03-31T14:36:02.663Z,11.59
2023-03-31T14:37:34.370Z,11.57
2023-03-31T14:39:11.670Z,11.49
2023-03-31T14:40:48.506Z,11.44
2023-03-31T14:42:28.835Z,11.40
2023-03-31T14:44:02.879Z,11.39
2023-03-31T14:45:34.578Z,11.36
2023-03-31T14:47:06.670Z,11.69
2023-03-31T14:48:45.980Z,11.69
2023-03-31T14:50:18.896Z,11.77
2023-03-31T14:51:53.099Z,11.82
2023-03-31T14:53:26.461Z,11.69
2023-03-31T14:54:59.442Z,11.45
2023-03-31T14:56:39.180Z,11.52
2023-03-31T14:58:15.001Z,11.48
2023-03-31T14:59:47.906Z,11.53
2023-03-31T15:01:26.224Z,11.58
2023-03-31T15:03:01.020Z,11.64
2023-03-31T15:04:44.789Z,11.76
2023-03-31T15:06:16.782Z,11.71
2023-03-31T15:07:48.738Z,11.69
2023-03-31T15:09:29.871Z,11.71
2023-03-31T15:12:43.457Z,11.76
2023-03-31T15:14:15.341Z,11.84
2023-03-31T15:15:47.006Z,11.80
2023-03-31T15:17:24.805Z,11.53
2023-03-31T15:18:57.995Z,11.59
2023-03-31T15:20:31.847Z,11.62
2023-03-31T15:22:16.414Z,11.70
2023-03-31T15:23:53.181Z,11.60
2023-03-31T15:25:36.844Z,11.64
2023-03-31T15:27:33.983Z,11.68
2023-03-31T15:29:16.464Z,11.60
2023-03-31T15:30:54.371Z,11.53
2023-03-31T15:32:37.867Z,11.63
2023-03-31T15:34:28.060Z,11.68
2023-03-31T15:36:00.443Z,11.46
2023-03-31T15:37:43.565Z,11.46
2023-03-31T15:39:15.316Z,11.53
2023-03-31T15:40:54.542Z,11.61
2023-03-31T15:42:28.000Z,11.59
2023-03-31T15:44:30.798Z,11.51
2023-03-31T15:46:02.593Z,11.42
2023-03-31T15:47:38.669Z,11.42
2023-03-31T15:49:21.747Z,11.59
2023-03-31T15:51:01.020Z,11.60
2023-03-31T15:52:38.790Z,11.54
2023-03-31T15:54:43.072Z,11.52
2023-03-31T15:56:33.565Z,11.49
2023-03-31T15:58:17.436Z,11.33
2023-03-31T15:59:55.925Z,11.31
2023-03-31T16:01:32.882Z,11.36
2023-03-31T16:03:14.691Z,11.49
2023-03-31T16:04:53.628Z,11.41
2023-03-31T16:06:52.640Z,11.53
2023-03-31T16:08:42.998Z,11.58
2023-03-31T16:10:21.614Z,11.42
2023-03-31T16:12:03.976Z,11.44
2023-03-31T16:13:40.025Z,11.37
2023-03-31T16:15:18.384Z,11.33
2023-03-31T16:16:54.679Z,11.23
2023-03-31T16:18:36.256Z,11.24
2023-03-31T16:20:22.629Z,11.30
2023-03-31T16:21:59.394Z,11.23
2023-03-31T16:23:38.692Z,11.25
2023-03-31T16:25:13.392Z,11.25
2023-03-31T16:26:45.129Z,11.12
2023-03-31T16:28:20.636Z,11.22
2023-03-31T16:30:06.475Z,11.33
2023-03-31T16:31:40.889Z,11.37
2023-03-31T16:33:18.732Z,11.11
2023-03-31T16:34:58.008Z,11.14
2023-03-31T16:36:29.995Z,11.04
2023-03-31T16:38:04.186Z,10.84
2023-03-31T16:39:35.712Z,10.67
2023-03-31T16:41:07.320Z,10.42
2023-03-31T16:42:39.045Z,10.30
2023-03-31T16:45:50.939Z,9.98
2023-03-31T16:47:34.551Z,9.76
2023-03-31T16:49:06.562Z,9.61
2023-03-31T16:50:38.461Z,9.66
2023-03-31T16:52:10.149Z,9.70
2023-03-31T16:53:41.847Z,9.63
2023-03-31T16:55:13.689Z,9.55
2023-03-31T16:56:45.761Z,9.45
2023-03-31T16:58:18.018Z,9.46
2023-03-31T16:59:49.718Z,9.49
2023-03-31T17:01:21.510Z,9.37
2023-03-31T17:02:53.264Z,9.26
2023-03-31T17:04:25.398Z,9.21
2023-03-31T17:05:59.281Z,9.22
2023-03-31T17:07:31.233Z,9.21
2023-03-31T17:09:03.545Z,9.15
2023-03-31T17:10:35.732Z,9.20
2023-03-31T17:12:07.395Z,9.15
2023-03-31T17:13:39.960Z,9.18
2023-03-31T17:15:12.666Z,9.09
2023-03-31T17:16:48.539Z,9.04
2023-03-31T17:18:20.798Z,9.03
2023-03-31T17:19:53.079Z,9.05
2023-03-31T17:21:26.333Z,9.07
2023-03-31T17:22:58.588Z,9.10
2023-03-31T17:24:30.334Z,9.17
2023-03-31T17:26:04.198Z,9.20
2023-03-31T17:27:36.489Z,9.18
2023-03-31T17:29:08.166Z,9.25
2023-03-31T17:30:40.188Z,9.32
2023-03-31T17:32:13.679Z,9.30
2023-03-31T17:33:46.258Z,9.27
2023-03-31T17:35:21.497Z,9.26
2023-03-31T17:36:55.418Z,9.21
2023-03-31T17:38:27.493Z,9.22
2023-03-31T17:39:59.390Z,9.18
2023-03-31T17:41:31.610Z,9.22
2023-03-31T17:43:03.491Z,9.23
2023-03-31T17:44:35.518Z,9.20
2023-03-31T17:46:12.934Z,9.00
2023-03-31T17:47:46.322Z,9.23
2023-03-31T17:49:18.143Z,9.00
2023-03-31T17:50:49.700Z,8.67
2023-03-31T17:52:21.396Z,8.65
2023-03-31T17:53:53.200Z,8.84
2023-03-31T17:55:24.862Z,8.93
2023-03-31T17:56:56.479Z,8.97
2023-03-31T17:58:28.272Z,8.76
2023-03-31T17:59:59.889Z,8.72
2023-03-31T18:01:31.743Z,8.78
2023-03-31T18:03:03.460Z,8.81
2023-03-31T18:04:35.136Z,8.77
2023-03-31T18:06:11.761Z,8.75
2023-03-31T18:07:43.483Z,8.75
2023-03-31T18:09:15.185Z,8.88
2023-03-31T18:10:46.847Z,8.91
2023-03-31T18:12:18.852Z,8.92
2023-03-31T18:13:51.158Z,8.89
2023-03-31T18:15:22.781Z,8.90
2023-03-31T18:16:54.479Z,8.95
2023-03-31T18:18:28.998Z,8.97
2023-03-31T18:20:00.702Z,8.97
2023-03-31T18:21:32.297Z,9.14
2023-03-31T18:23:04.652Z,8.99
2023-03-31T18:24:38.385Z,8.94
2023-03-31T18:26:12.859Z,8.91
2023-03-31T18:27:44.589Z,8.94
2023-03-31T18:29:16.470Z,8.90
2023-03-31T18:30:48.235Z,8.88
2023-03-31T18:32:20.206Z,8.88
2023-03-31T18:33:52.383Z,8.90
2023-03-31T18:35:24.199Z,8.87
2023-03-31T18:36:55.969Z,8.85
2023-03-31T18:38:28.099Z,8.82
2023-03-31T18:39:59.800Z,8.88
2023-03-31T18:41:31.380Z,8.87
2023-03-31T18:43:03.128Z,8.88
2023-03-31T18:44:36.007Z,8.89
2023-03-31T18:46:07.752Z,8.79
2023-03-31T18:47:40.038Z,8.76
2023-03-31T18:49:12.082Z,8.76
2023-03-31T18:50:43.973Z,8.75
2023-03-31T18:52:16.341Z,8.72
2023-03-31T18:53:47.924Z,8.75
2023-03-31T18:55:20.066Z,8.83
2023-03-31T18:56:51.729Z,8.70
2023-03-31T18:58:23.950Z,8.63
2023-03-31T18:59:55.736Z,8.66
2023-03-31T19:01:28.639Z,8.59
2023-03-31T19:03:00.257Z,8.57
2023-03-31T19:04:32.713Z,8.67
2023-03-31T19:06:12.323Z,8.64
2023-03-31T19:07:43.978Z,8.80
2023-03-31T19:09:15.602Z,8.70
2023-03-31T19:10:47.202Z,8.77
2023-03-31T19:12:18.923Z,8.75
2023-03-31T19:13:50.533Z,8.66
2023-03-31T19:15:22.613Z,8.65
2023-03-31T19:16:54.352Z,8.67
2023-03-31T19:18:32.905Z,8.68
2023-03-31T19:20:16.294Z,8.64
2023-03-31T19:21:48.566Z,8.66
2023-03-31T19:23:20.439Z,8.72
2023-03-31T19:24:52.313Z,8.78
2023-03-31T19:26:24.014Z,8.80
2023-03-31T19:27:55.841Z,8.77
2023-03-31T19:29:30.389Z,8.74
2023-03-31T19:31:04.482Z,8.79
2023-03-31T19:32:36.716Z,8.67
2023-03-31T19:34:11.772Z,8.60
2023-03-31T19:35:45.536Z,8.69
2023-03-31T19:37:17.391Z,8.69
2023-03-31T19:38:49.091Z,8.63
2023-03-31T19:40:20.959Z,8.57
2023-03-31T19:41:52.550Z,8.56
2023-03-31T19:43:25.219Z,8.53
2023-03-31T19:44:56.956Z,8.50
2023-03-31T19:46:28.866Z,8.53
2023-03-31T19:48:00.638Z,8.54
2023-03-31T19:49:32.256Z,8.55
2023-03-31T19:51:08.672Z,8.56
2023-03-31T19:52:40.795Z,8.59
2023-03-31T19:54:13.088Z,8.77
2023-03-31T19:55:44.732Z,8.69
2023-03-31T19:57:16.692Z,8.57
2023-03-31T19:58:50.162Z,8.79
2023-03-31T20:00:21.854Z,8.67
2023-03-31T20:01:53.595Z,8.61
2023-03-31T20:03:26.384Z,8.60
2023-03-31T20:04:58.233Z,8.61
2023-03-31T20:06:30.868Z,8.71
2023-03-31T20:08:02.602Z,8.64
2023-03-31T20:09:34.403Z,8.61
2023-03-31T20:11:08.192Z,8.71
2023-03-31T20:12:40.155Z,8.80
2023-03-31T20:14:12.292Z,8.85
2023-03-31T20:15:43.966Z,8.93
2023-03-31T20:17:16.802Z,8.87
2023-03-31T20:18:54.012Z,8.85
2023-03-31T20:20:25.830Z,9.01
2023-03-31T20:21:57.967Z,8.87
2023-03-31T20:23:30.467Z,8.87
2023-03-31T20:25:02.360Z,8.86
2023-03-31T20:26:34.671Z,8.81
2023-03-31T20:28:06.412Z,8.83
2023-03-31T20:29:38.143Z,8.95
2023-03-31T20:31:12.540Z,8.85
2023-03-31T20:32:44.314Z,8.90
2023-03-31T20:34:17.801Z,9.03
2023-03-31T20:35:59.129Z,9.05
2023-03-31T20:37:30.796Z,8.96
2023-03-31T20:39:04.413Z,8.90
2023-03-31T20:40:36.646Z,8.94
2023-03-31T20:42:08.231Z,8.72
2023-03-31T20:43:40.225Z,8.69
2023-03-31T20:45:13.001Z,8.63
2023-03-31T20:46:45.003Z,8.68
2023-03-31T20:48:17.753Z,8.72
2023-03-31T20:49:50.344Z,8.62
2023-03-31T20:51:27.598Z,8.58
2023-03-31T20:52:59.377Z,8.60
2023-03-31T20:54:31.503Z,8.60
2023-03-31T20:56:03.298Z,8.64
2023-03-31T20:57:34.989Z,8.69
2023-03-31T20:59:10.381Z,8.77
2023-03-31T21:00:42.252Z,8.80
2023-03-31T21:02:14.471Z,8.69
2023-03-31T21:03:46.639Z,8.81
2023-03-31T21:05:18.292Z,8.74
2023-03-31T21:06:49.941Z,8.64
2023-03-31T21:08:21.538Z,8.75
2023-03-31T21:09:53.247Z,8.68
2023-03-31T21:11:25.376Z,8.76
2023-03-31T21:12:57.060Z,8.89
2023-03-31T21:14:29.633Z,8.84